Time;durP1;ratioP1;P1;durP2;ratioP2;P2;SDS_P1;SDS_P2;PMS_P1;PMS_P2;Temp;Humidity;BMP_temperature;BMP_pressure;BME280_temperature;BME280_humidity;BME280_pressure;Samples;Min_cycle;Max_cycle;Signal;HPM_P1;HPM_P2
2022/06/04 00:00:31;;;;;;;14.47;13.07;;;19.10;99.90;;;;;;4997629;28;20444;-74
2022/06/04 00:02:56;;;;;;;13.70;12.60;;;19.10;99.90;;;;;;4985184;28;20875;-74
2022/06/04 00:05:26;;;;;;;13.23;11.87;;;19.00;99.90;;;;;;4991359;28;20494;-74
2022/06/04 00:07:52;;;;;;;14.10;12.80;;;19.00;99.90;;;;;;5004681;28;20230;-74
2022/06/04 00:15:54;;;;;;;14.40;13.20;;;18.80;99.90;;;;;;4992358;28;20405;-73
2022/06/04 00:18:21;;;;;;;15.07;13.67;;;18.80;99.90;;;;;;4985787;28;20447;-74
2022/06/04 00:20:49;;;;;;;14.33;12.73;;;18.80;99.90;;;;;;5003307;28;20489;-74
2022/06/04 00:23:15;;;;;;;15.00;13.77;;;18.70;99.90;;;;;;4990485;28;20931;-74
2022/06/04 00:25:45;;;;;;;14.23;13.03;;;18.80;99.90;;;;;;4992317;28;20889;-73
2022/06/04 00:28:11;;;;;;;13.63;12.50;;;18.80;99.90;;;;;;4995342;28;20415;-74
2022/06/04 00:30:38;;;;;;;13.97;12.63;;;18.80;99.90;;;;;;4992663;28;20466;-74
2022/06/04 00:33:04;;;;;;;13.47;12.37;;;18.90;99.90;;;;;;4992952;28;20794;-74
2022/06/04 00:35:30;;;;;;;12.60;11.60;;;19.00;99.90;;;;;;4994024;28;20406;-73
2022/06/04 00:37:56;;;;;;;13.40;12.10;;;18.90;99.90;;;;;;4995433;28;20435;-74
2022/06/04 00:40:47;;;;;;;12.60;11.60;;;18.80;99.90;;;;;;4987080;28;20514;-74
2022/06/04 00:43:13;;;;;;;12.10;11.20;;;18.80;99.90;;;;;;4994056;28;20414;-73
2022/06/04 00:46:10;;;;;;;15.00;13.70;;;18.70;99.90;;;;;;4984896;28;20424;-73
2022/06/04 00:48:36;;;;;;;14.70;13.47;;;18.70;99.90;;;;;;5002344;28;20778;-74
2022/06/04 00:51:03;;;;;;;12.30;11.40;;;18.70;99.90;;;;;;5004169;28;20439;-74
2022/06/04 00:53:29;;;;;;;11.90;10.90;;;18.70;99.90;;;;;;4992100;28;20192;-74
2022/06/04 00:56:21;;;;;;;11.90;10.90;;;18.70;99.90;;;;;;5000073;28;20474;-74
2022/06/04 00:59:11;;;;;;;10.40;9.53;;;18.60;99.90;;;;;;4995896;28;20502;-74
2022/06/04 01:01:46;;;;;;;9.83;9.07;;;18.60;99.90;;;;;;4990275;28;20443;-74
2022/06/04 01:04:49;;;;;;;12.23;9.70;;;18.60;99.90;;;;;;5002225;28;20462;-75
2022/06/04 01:07:43;;;;;;;10.60;9.70;;;18.70;99.90;;;;;;5000619;28;20417;-74
2022/06/04 01:10:43;;;;;;;10.07;9.27;;;18.80;99.90;;;;;;4997668;28;20522;-74
2022/06/04 01:13:11;;;;;;;9.27;8.47;;;18.80;99.90;;;;;;5001131;28;20404;-74
2022/06/04 01:15:47;;;;;;;9.87;9.07;;;18.80;99.90;;;;;;4994656;28;20451;-74
2022/06/04 01:18:18;;;;;;;11.03;10.13;;;18.80;99.90;;;;;;5000868;28;20450;-74
2022/06/04 01:21:02;;;;;;;9.97;9.07;;;18.80;99.90;;;;;;5001519;28;20435;-73
2022/06/04 01:23:28;;;;;;;11.37;10.37;;;18.60;99.90;;;;;;4994874;28;20508;-74
2022/06/04 01:26:03;;;;;;;10.00;9.20;;;18.60;99.90;;;;;;4987421;28;21309;-74
2022/06/04 01:28:31;;;;;;;10.23;9.27;;;18.60;99.90;;;;;;4995354;28;20174;-73
2022/06/04 01:31:03;;;;;;;10.63;9.73;;;18.60;99.90;;;;;;5004257;28;20640;-74
2022/06/04 01:33:29;;;;;;;10.37;9.50;;;18.50;99.90;;;;;;4990783;28;20423;-74
2022/06/04 01:36:09;;;;;;;10.87;9.97;;;18.40;99.90;;;;;;4992636;28;20428;-74
2022/06/04 01:38:40;;;;;;;12.57;10.93;;;18.40;99.90;;;;;;4999515;28;20176;-74
2022/06/04 01:41:11;;;;;;;12.20;11.20;;;18.30;99.90;;;;;;4989142;28;20427;-74
2022/06/04 01:43:50;;;;;;;9.53;8.73;;;18.30;99.90;;;;;;5006219;28;20458;-74
2022/06/04 01:46:27;;;;;;;10.70;9.17;;;18.40;99.90;;;;;;5001847;28;20904;-74
2022/06/04 01:48:58;;;;;;;8.20;7.60;;;18.40;99.90;;;;;;4999393;28;20404;-74
2022/06/04 01:51:28;;;;;;;11.97;10.97;;;18.50;99.90;;;;;;4987547;28;20436;-74
2022/06/04 01:54:00;;;;;;;11.70;10.70;;;18.40;99.90;;;;;;4987593;28;20430;-74
2022/06/04 01:56:30;;;;;;;9.50;8.80;;;18.40;99.90;;;;;;5002317;28;20974;-74
2022/06/04 01:59:11;;;;;;;10.60;9.70;;;18.40;99.90;;;;;;4989311;28;20412;-74
2022/06/04 02:01:38;;;;;;;9.73;8.83;;;18.40;99.90;;;;;;4988877;28;20501;-73
2022/06/04 02:04:12;;;;;;;10.50;9.63;;;18.40;99.90;;;;;;4993660;28;20835;-74
2022/06/04 02:06:45;;;;;;;10.10;9.07;;;18.40;99.90;;;;;;4997131;28;20412;-74
2022/06/04 02:09:15;;;;;;;9.67;8.93;;;18.40;99.90;;;;;;5026419;23;20494;-74
2022/06/04 02:11:48;;;;;;;10.27;9.40;;;18.40;99.90;;;;;;5006935;28;20455;-71
2022/06/04 02:14:14;;;;;;;10.77;9.87;;;18.40;99.90;;;;;;5006437;28;20426;-73
2022/06/04 02:16:52;;;;;;;9.20;8.50;;;18.40;99.90;;;;;;5005458;28;20495;-73
2022/06/04 02:19:18;;;;;;;11.33;10.37;;;18.30;99.90;;;;;;5005320;28;20453;-72
2022/06/04 02:21:44;;;;;;;10.90;9.83;;;18.30;99.90;;;;;;5006663;28;20407;-72
2022/06/04 02:24:10;;;;;;;10.13;9.37;;;18.10;99.90;;;;;;5006720;28;20454;-72
2022/06/04 02:26:37;;;;;;;10.47;9.67;;;18.10;99.90;;;;;;5006793;28;21035;-73
2022/06/04 02:29:03;;;;;;;10.27;9.47;;;18.10;99.90;;;;;;5006938;28;20847;-72
2022/06/04 02:32:00;;;;;;;9.93;9.00;;;18.10;99.90;;;;;;5006977;28;20425;-72
2022/06/04 02:34:34;;;;;;;12.43;11.43;;;18.20;99.90;;;;;;5006399;28;20430;-75
2022/06/04 02:37:16;;;;;;;11.27;10.37;;;18.20;99.90;;;;;;5005989;28;20418;-74
2022/06/04 02:39:54;;;;;;;11.20;10.10;;;18.20;99.90;;;;;;5006848;28;20533;-74
2022/06/04 02:42:33;;;;;;;15.80;14.23;;;18.10;99.90;;;;;;5007791;28;20411;-72
2022/06/04 02:45:06;;;;;;;14.40;12.50;;;18.10;99.90;;;;;;5007712;28;20438;-74
2022/06/04 02:47:41;;;;;;;15.90;14.30;;;18.10;99.90;;;;;;5007267;28;20453;-73
2022/06/04 02:50:33;;;;;;;11.20;10.20;;;18.10;99.90;;;;;;5015650;28;20414;-73
2022/06/04 02:53:01;;;;;;;10.07;9.10;;;18.00;99.90;;;;;;5020521;28;20463;-75
2022/06/04 02:55:31;;;;;;;11.70;10.47;;;17.90;99.90;;;;;;5023152;28;20426;-73
2022/06/04 02:58:01;;;;;;;9.60;8.70;;;17.80;99.90;;;;;;5029178;28;20438;-74
2022/06/04 03:00:28;;;;;;;9.20;8.40;;;17.70;99.90;;;;;;5027324;28;20453;-70
2022/06/04 03:02:54;;;;;;;8.53;7.93;;;17.60;99.90;;;;;;5021140;28;20465;-72
2022/06/04 03:05:23;;;;;;;8.30;7.70;;;17.70;99.90;;;;;;5019343;28;20458;-72
2022/06/04 03:07:52;;;;;;;9.00;8.30;;;17.70;99.90;;;;;;5018627;28;20412;-75
2022/06/04 03:10:19;;;;;;;7.97;7.27;;;17.80;99.90;;;;;;5020013;28;20474;-73
2022/06/04 03:12:45;;;;;;;9.23;8.40;;;17.80;99.90;;;;;;5017866;28;20432;-73
2022/06/04 03:15:12;;;;;;;8.10;7.27;;;17.80;99.90;;;;;;5006950;28;20426;-74
2022/06/04 03:17:40;;;;;;;10.63;8.50;;;17.80;99.90;;;;;;5006357;28;20449;-72
2022/06/04 03:20:08;;;;;;;9.40;8.43;;;17.80;99.90;;;;;;5005227;28;20442;-73
2022/06/04 03:22:35;;;;;;;8.60;7.90;;;17.80;99.90;;;;;;5005424;28;20414;-75
2022/06/04 03:25:00;;;;;;;7.57;7.07;;;17.90;99.90;;;;;;5005741;28;20447;-75
2022/06/04 03:27:26;;;;;;;8.10;7.50;;;17.90;99.90;;;;;;5004280;28;20439;-72
2022/06/04 03:29:52;;;;;;;7.80;7.10;;;18.00;99.90;;;;;;5005693;28;20207;-73
2022/06/04 03:32:17;;;;;;;6.97;6.40;;;18.10;99.90;;;;;;5005479;28;20188;-74
2022/06/04 03:34:43;;;;;;;7.73;6.77;;;18.20;99.90;;;;;;5005360;28;20188;-74
2022/06/04 03:37:08;;;;;;;8.60;7.90;;;18.20;99.90;;;;;;5005259;28;20223;-74
2022/06/04 03:39:34;;;;;;;7.57;6.97;;;18.30;99.90;;;;;;5005551;28;20212;-72
2022/06/04 03:42:01;;;;;;;8.07;7.30;;;18.30;99.90;;;;;;5005478;28;20188;-71
2022/06/04 03:44:27;;;;;;;8.43;7.73;;;18.30;99.90;;;;;;5005218;28;20677;-72
2022/06/04 03:46:53;;;;;;;7.30;6.60;;;18.30;99.90;;;;;;5004990;28;20423;-71
2022/06/04 03:49:19;;;;;;;7.57;6.97;;;18.30;99.90;;;;;;5003723;28;20442;-72
2022/06/04 03:51:45;;;;;;;7.43;6.83;;;18.20;99.90;;;;;;5004922;28;20283;-72
2022/06/04 03:54:10;;;;;;;7.37;6.77;;;18.20;99.90;;;;;;5004990;28;20945;-71
2022/06/04 03:56:36;;;;;;;8.90;8.10;;;18.20;99.90;;;;;;5005006;28;20450;-74
2022/06/04 03:59:02;;;;;;;8.30;7.60;;;18.20;99.90;;;;;;5004721;28;20739;-72
2022/06/04 04:01:29;;;;;;;7.73;7.13;;;18.20;99.90;;;;;;5004875;28;20433;-72
2022/06/04 04:03:57;;;;;;;7.73;7.13;;;18.30;99.90;;;;;;5004726;28;20539;-70
2022/06/04 04:06:27;;;;;;;7.50;6.90;;;18.50;99.90;;;;;;5004473;28;20429;-71
2022/06/04 04:08:53;;;;;;;7.83;7.23;;;18.50;99.90;;;;;;5004523;28;20508;-73
2022/06/04 04:11:21;;;;;;;8.70;8.00;;;18.50;99.90;;;;;;5003746;28;20419;-75
2022/06/04 04:13:47;;;;;;;9.03;8.20;;;18.60;99.90;;;;;;5004635;28;20485;-73
2022/06/04 04:16:15;;;;;;;7.80;7.30;;;18.50;99.90;;;;;;5004358;28;20422;-73
2022/06/04 04:18:41;;;;;;;7.80;7.10;;;18.50;99.90;;;;;;5004715;28;20757;-73
2022/06/04 04:21:16;;;;;;;6.47;5.87;;;18.50;99.90;;;;;;5004706;28;20853;-74
2022/06/04 04:23:43;;;;;;;9.50;8.40;;;18.60;99.90;;;;;;5004502;28;20460;-73
2022/06/04 04:26:10;;;;;;;9.53;8.73;;;18.60;99.90;;;;;;5004159;28;20407;-76
2022/06/04 04:28:36;;;;;;;8.30;7.60;;;18.60;99.90;;;;;;5004394;28;20447;-72
2022/06/04 04:31:02;;;;;;;9.40;8.60;;;18.60;99.90;;;;;;5004096;28;20802;-70
2022/06/04 04:33:28;;;;;;;9.30;8.60;;;18.70;99.90;;;;;;5004924;28;20423;-73
2022/06/04 04:35:54;;;;;;;11.00;10.03;;;18.80;99.90;;;;;;5003772;28;21031;-73
2022/06/04 04:38:21;;;;;;;9.30;8.50;;;18.70;99.90;;;;;;5004333;28;20198;-72
2022/06/04 04:40:48;;;;;;;8.37;7.67;;;18.60;99.90;;;;;;5003220;28;20184;-72
2022/06/04 04:43:15;;;;;;;9.73;9.00;;;18.70;99.90;;;;;;5004554;28;20419;-72
2022/06/04 04:45:43;;;;;;;9.53;8.47;;;18.90;99.90;;;;;;5004702;28;20442;-74
2022/06/04 04:48:09;;;;;;;8.60;8.00;;;19.10;99.90;;;;;;5005010;28;20872;-72
2022/06/04 04:50:37;;;;;;;9.70;9.00;;;19.20;99.90;;;;;;5003346;28;20422;-75
2022/06/04 04:53:07;;;;;;;8.30;7.60;;;19.40;99.90;;;;;;5004630;28;20411;-73
2022/06/04 04:55:33;;;;;;;7.77;7.17;;;19.60;99.90;;;;;;5004217;28;20525;-73
2022/06/04 04:58:00;;;;;;;8.30;7.63;;;19.80;99.90;;;;;;5004897;28;20527;-74
2022/06/04 05:00:26;;;;;;;8.80;7.93;;;20.10;99.90;;;;;;5005569;28;20449;-74
2022/06/04 05:02:52;;;;;;;8.60;7.90;;;20.30;99.90;;;;;;5008420;28;20422;-73
2022/06/04 05:05:17;;;;;;;8.93;8.23;;;20.40;99.90;;;;;;5008093;28;20569;-71
2022/06/04 05:07:44;;;;;;;9.03;8.33;;;20.50;99.90;;;;;;5007909;28;20180;-74
2022/06/04 05:10:12;;;;;;;9.07;8.13;;;20.60;99.90;;;;;;5007687;28;20208;-73
2022/06/04 05:12:38;;;;;;;10.57;9.57;;;20.70;99.90;;;;;;5008109;28;20505;-72
2022/06/04 05:15:04;;;;;;;9.27;8.57;;;20.80;99.90;;;;;;5008129;28;20489;-73
2022/06/04 05:17:30;;;;;;;9.70;9.00;;;20.80;99.90;;;;;;5007973;28;20294;-73
2022/06/04 05:19:56;;;;;;;10.97;10.07;;;20.80;99.90;;;;;;5007869;28;20485;-72
2022/06/04 05:22:22;;;;;;;10.90;10.10;;;20.80;99.90;;;;;;5007719;28;20660;-72
2022/06/04 05:24:47;;;;;;;9.20;8.60;;;20.90;99.90;;;;;;5007523;28;20212;-72
2022/06/04 05:27:13;;;;;;;9.00;8.33;;;20.90;99.90;;;;;;5007666;28;20973;-72
2022/06/04 05:29:39;;;;;;;9.50;8.80;;;21.00;99.90;;;;;;5008018;28;20727;-74
2022/06/04 05:32:06;;;;;;;9.40;8.60;;;21.10;99.90;;;;;;5007788;28;20237;-73
2022/06/04 05:34:33;;;;;;;8.90;8.10;;;21.10;99.90;;;;;;5007309;28;20830;-75
2022/06/04 05:36:59;;;;;;;9.23;8.43;;;21.20;99.90;;;;;;5005794;28;20438;-71
2022/06/04 05:39:25;;;;;;;8.47;7.80;;;21.20;99.90;;;;;;5006901;28;20435;-73
2022/06/04 05:41:52;;;;;;;8.50;7.80;;;21.10;99.90;;;;;;5007114;28;20946;-70
2022/06/04 05:44:18;;;;;;;8.70;7.93;;;21.20;99.90;;;;;;5005424;28;20894;-73
2022/06/04 05:46:44;;;;;;;9.33;8.63;;;21.30;99.90;;;;;;5007124;28;20415;-73
2022/06/04 05:49:12;;;;;;;8.13;7.43;;;21.30;99.90;;;;;;5006502;28;21007;-74
2022/06/04 05:51:40;;;;;;;8.83;8.07;;;21.30;99.90;;;;;;5005377;28;20430;-76
2022/06/04 05:54:07;;;;;;;8.13;7.43;;;21.40;99.90;;;;;;5006842;28;20433;-72
2022/06/04 05:56:35;;;;;;;8.77;8.17;;;21.50;99.90;;;;;;5007041;28;20410;-73
2022/06/04 05:59:04;;;;;;;9.50;8.77;;;21.50;99.90;;;;;;5006704;28;20450;-73
2022/06/04 06:01:31;;;;;;;9.13;8.43;;;21.40;99.90;;;;;;5006857;28;20945;-73
2022/06/04 06:03:58;;;;;;;9.50;8.50;;;21.10;99.90;;;;;;5006636;28;20896;-74
2022/06/04 06:06:27;;;;;;;8.93;7.97;;;20.80;99.90;;;;;;5005446;28;20434;-71
2022/06/04 06:08:54;;;;;;;7.57;6.97;;;20.70;99.90;;;;;;5006077;28;20545;-73
2022/06/04 06:11:20;;;;;;;8.40;7.60;;;20.70;99.90;;;;;;5005759;28;20411;-73
2022/06/04 06:13:48;;;;;;;5.83;5.23;;;20.60;99.90;;;;;;5007017;28;20949;-73
2022/06/04 06:16:20;;;;;;;8.03;7.27;;;20.50;99.90;;;;;;5007040;28;20419;-72
2022/06/04 06:18:45;;;;;;;10.17;6.77;;;20.30;99.90;;;;;;5006623;28;20442;-72
2022/06/04 06:21:14;;;;;;;15.30;9.10;;;20.10;99.90;;;;;;5006555;28;20419;-71
2022/06/04 06:23:41;;;;;;;10.23;8.83;;;19.90;99.90;;;;;;5007226;28;20272;-74
2022/06/04 06:26:11;;;;;;;8.63;7.73;;;19.40;99.90;;;;;;5006912;28;20407;-72
2022/06/04 06:28:39;;;;;;;9.13;8.10;;;19.30;99.90;;;;;;5006609;28;20442;-72
2022/06/04 06:31:06;;;;;;;11.13;9.03;;;19.30;99.90;;;;;;5006335;28;20415;-73
2022/06/04 06:33:32;;;;;;;9.23;8.50;;;19.30;99.90;;;;;;5006308;28;20418;-73
2022/06/04 06:36:00;;;;;;;10.77;9.40;;;19.40;99.90;;;;;;5006244;28;20484;-72
2022/06/04 06:38:27;;;;;;;9.20;8.33;;;19.50;99.90;;;;;;5005925;28;20935;-71
2022/06/04 06:40:56;;;;;;;8.57;7.77;;;19.60;99.90;;;;;;5005848;28;20423;-72
2022/06/04 06:43:31;;;;;;;12.23;8.87;;;19.70;99.90;;;;;;5005946;28;20411;-73
2022/06/04 06:46:07;;;;;;;8.97;8.13;;;19.80;99.90;;;;;;5006440;28;20489;-73
2022/06/04 06:48:34;;;;;;;8.33;7.60;;;19.90;99.90;;;;;;5005841;28;20434;-71
2022/06/04 06:51:12;;;;;;;9.20;8.40;;;20.20;99.90;;;;;;5005346;28;20418;-72
2022/06/04 06:53:39;;;;;;;9.47;8.67;;;20.40;99.90;;;;;;5006127;28;20414;-72
2022/06/04 06:56:23;;;;;;;9.57;8.87;;;20.50;99.90;;;;;;5005789;28;20421;-74
2022/06/04 06:58:49;;;;;;;8.10;7.30;;;20.70;99.90;;;;;;5005985;28;21493;-73
2022/06/04 07:01:15;;;;;;;7.90;7.30;;;20.80;99.90;;;;;;5004622;28;20469;-72
2022/06/04 07:03:41;;;;;;;7.33;6.73;;;21.00;99.90;;;;;;5005032;28;20196;-73
2022/06/04 07:06:10;;;;;;;10.80;9.60;;;21.10;99.90;;;;;;5005642;28;20275;-73
2022/06/04 07:08:38;;;;;;;10.73;9.63;;;21.10;99.90;;;;;;5005310;28;20482;-72
2022/06/04 07:11:04;;;;;;;8.90;8.20;;;20.90;99.90;;;;;;5005566;28;20411;-74
2022/06/04 07:13:29;;;;;;;10.80;9.97;;;20.70;99.90;;;;;;5005443;28;20429;-74
2022/06/04 07:15:55;;;;;;;9.90;9.07;;;20.40;99.90;;;;;;5005660;28;20495;-73
2022/06/04 07:18:21;;;;;;;8.20;7.50;;;20.30;99.90;;;;;;5005688;28;20187;-73
2022/06/04 07:20:47;;;;;;;10.67;9.57;;;20.30;99.90;;;;;;5005442;28;20184;-73
2022/06/04 07:23:13;;;;;;;12.47;10.20;;;20.60;99.90;;;;;;5005114;28;20238;-72
2022/06/04 07:25:41;;;;;;;9.10;8.30;;;20.50;99.90;;;;;;5005310;28;20467;-72
2022/06/04 07:28:09;;;;;;;11.67;9.90;;;20.60;99.90;;;;;;5005462;28;20665;-71
2022/06/04 07:30:34;;;;;;;10.53;9.03;;;20.80;99.90;;;;;;5005326;28;20411;-73
2022/06/04 07:33:00;;;;;;;8.93;8.00;;;20.70;99.90;;;;;;5004150;28;20437;-76
2022/06/04 07:35:25;;;;;;;10.60;9.60;;;20.80;99.90;;;;;;5004366;28;20176;-72
2022/06/04 07:37:51;;;;;;;10.40;9.37;;;20.70;99.90;;;;;;5005007;28;20194;-75
2022/06/04 07:40:17;;;;;;;10.83;9.77;;;20.90;99.90;;;;;;5005192;28;20207;-74
2022/06/04 07:42:42;;;;;;;9.00;8.30;;;21.30;99.90;;;;;;5004984;28;20248;-76
2022/06/04 07:45:09;;;;;;;10.37;9.37;;;21.60;99.90;;;;;;5005360;28;20207;-74
2022/06/04 07:47:35;;;;;;;10.67;9.67;;;21.80;99.90;;;;;;5005669;28;20190;-75
2022/06/04 07:50:02;;;;;;;9.23;8.43;;;21.90;99.90;;;;;;5005323;28;20435;-73
2022/06/04 07:52:27;;;;;;;9.27;8.00;;;22.00;99.90;;;;;;5003268;28;20421;-74
2022/06/04 07:54:53;;;;;;;11.97;10.77;;;22.20;99.90;;;;;;5004182;28;20525;-71
2022/06/04 07:57:19;;;;;;;11.80;10.70;;;22.30;99.90;;;;;;5003983;28;20183;-76
2022/06/04 07:59:45;;;;;;;10.47;9.47;;;22.10;99.90;;;;;;5004705;28;20208;-75
2022/06/04 08:02:12;;;;;;;11.13;10.23;;;21.70;99.90;;;;;;5005951;28;20310;-74
2022/06/04 08:04:38;;;;;;;11.43;10.47;;;21.30;99.90;;;;;;5005034;28;20549;-73
2022/06/04 08:07:05;;;;;;;14.50;11.83;;;21.40;99.90;;;;;;5004951;28;20506;-74
2022/06/04 08:09:31;;;;;;;10.77;9.77;;;21.50;99.90;;;;;;5018261;22;20501;-74
2022/06/04 08:11:57;;;;;;;11.87;10.77;;;21.90;99.90;;;;;;5004143;28;20430;-73
2022/06/04 08:14:25;;;;;;;12.50;11.50;;;22.30;99.90;;;;;;5002606;28;20426;-73
2022/06/04 08:17:00;;;;;;;12.50;11.40;;;22.20;99.90;;;;;;5004024;28;20407;-74
2022/06/04 08:19:28;;;;;;;11.80;10.80;;;21.70;99.90;;;;;;5004042;28;20423;-74
2022/06/04 08:21:55;;;;;;;12.97;11.93;;;22.40;99.90;;;;;;5003532;28;20423;-74
2022/06/04 08:24:22;;;;;;;11.80;10.80;;;22.70;99.90;;;;;;5004340;28;20442;-74
2022/06/04 08:26:58;;;;;;;13.90;12.87;;;22.90;99.90;;;;;;4986569;28;20521;-74
2022/06/04 08:29:30;;;;;;;10.80;9.80;;;22.90;99.90;;;;;;5003025;28;20446;-73
2022/06/04 08:31:57;;;;;;;12.50;11.20;;;23.20;99.90;;;;;;5002990;28;20431;-74
2022/06/04 08:34:23;;;;;;;13.00;11.80;;;23.70;99.90;;;;;;5002658;28;20488;-74
2022/06/04 08:36:49;;;;;;;10.47;9.57;;;23.90;99.90;;;;;;5007117;28;20418;-74
2022/06/04 08:39:15;;;;;;;12.27;11.27;;;23.90;99.90;;;;;;5008223;28;20610;-74
2022/06/04 08:41:59;;;;;;;10.47;9.67;;;24.10;99.90;;;;;;5007912;28;20683;-74
2022/06/04 08:44:36;;;;;;;10.27;9.53;;;24.00;99.90;;;;;;5008275;28;20974;-74
2022/06/04 08:47:14;;;;;;;10.43;9.43;;;23.70;99.90;;;;;;5006743;28;20512;-74
2022/06/04 08:49:47;;;;;;;9.23;8.40;;;23.00;99.90;;;;;;5007900;28;20866;-74
2022/06/04 08:52:38;;;;;;;10.63;9.70;;;22.60;99.90;;;;;;5007749;28;20892;-74
2022/06/04 08:58:12;;;;;;;9.87;9.10;;;22.80;99.90;;;;;;5008073;28;20510;-74
2022/06/04 09:00:47;;;;;;;10.40;9.50;;;22.90;99.90;;;;;;5007872;28;20457;-74
2022/06/04 09:03:21;;;;;;;11.90;10.37;;;22.80;99.90;;;;;;5007990;28;20437;-74
2022/06/04 09:05:53;;;;;;;11.27;10.30;;;22.90;99.90;;;;;;5006544;28;20496;-74
2022/06/04 09:08:43;;;;;;;9.73;8.93;;;23.10;99.90;;;;;;5007951;28;20403;-74
2022/06/04 09:11:18;;;;;;;10.77;9.87;;;23.30;99.90;;;;;;4967929;28;20450;-74
2022/06/04 09:13:57;;;;;;;11.83;10.67;;;23.40;99.90;;;;;;5008254;28;20790;-74
2022/06/04 09:16:28;;;;;;;11.97;10.87;;;23.60;99.90;;;;;;5009374;28;20501;-74
2022/06/04 09:18:58;;;;;;;11.23;10.13;;;23.50;99.90;;;;;;5008020;28;20426;-74
2022/06/04 09:21:32;;;;;;;10.13;9.33;;;23.70;99.90;;;;;;5009917;28;20422;-74
2022/06/04 09:23:58;;;;;;;10.90;9.93;;;24.00;99.90;;;;;;5009057;28;20450;-75
2022/06/04 09:26:30;;;;;;;10.80;9.90;;;23.80;99.90;;;;;;5005844;28;20435;-74
2022/06/04 09:29:24;;;;;;;12.70;11.67;;;24.10;99.90;;;;;;5007592;28;20473;-74
2022/06/04 09:31:49;;;;;;;10.00;9.23;;;24.30;99.90;;;;;;5007923;28;20572;-75
2022/06/04 09:34:38;;;;;;;10.80;10.00;;;24.30;99.90;;;;;;5008091;28;20423;-75
2022/06/04 09:37:10;;;;;;;10.00;9.30;;;24.10;99.90;;;;;;5007528;28;20187;-75
2022/06/04 09:39:38;;;;;;;10.97;10.07;;;24.10;99.90;;;;;;5006328;28;20929;-75
2022/06/04 09:42:23;;;;;;;10.00;9.20;;;24.50;99.90;;;;;;5008328;28;20430;-75
2022/06/04 09:44:58;;;;;;;10.53;9.60;;;24.80;99.90;;;;;;5007864;28;20529;-75
2022/06/04 09:47:32;;;;;;;11.67;10.57;;;24.60;99.90;;;;;;5007405;28;20437;-75
2022/06/04 09:50:01;;;;;;;11.80;10.80;;;25.00;99.90;;;;;;5007274;28;20469;-75
2022/06/04 09:52:32;;;;;;;10.27;9.47;;;25.40;99.90;;;;;;5007605;28;20411;-75
2022/06/04 09:55:03;;;;;;;11.60;10.60;;;25.40;99.90;;;;;;5007523;28;20407;-75
2022/06/04 09:57:37;;;;;;;11.03;10.17;;;25.30;99.90;;;;;;5007106;28;20418;-75
2022/06/04 10:00:19;;;;;;;10.33;9.53;;;25.50;99.90;;;;;;5007336;28;20430;-74
2022/06/04 10:03:00;;;;;;;12.00;10.70;;;25.30;99.90;;;;;;5006940;28;20477;-74
2022/06/04 10:05:30;;;;;;;11.60;10.60;;;25.00;99.90;;;;;;5007757;28;20463;-74
2022/06/04 10:07:56;;;;;;;12.47;11.37;;;25.20;99.90;;;;;;5007444;28;20423;-75
2022/06/04 10:10:30;;;;;;;14.27;13.07;;;25.00;99.90;;;;;;5006728;28;20450;-74
2022/06/04 10:15:46;;;;;;;12.63;11.73;;;24.60;99.90;;;;;;5006968;28;20410;-72
2022/06/04 10:18:31;;;;;;;13.07;11.97;;;23.90;99.90;;;;;;5005133;28;20562;-74
2022/06/04 10:21:04;;;;;;;14.33;13.30;;;23.60;99.90;;;;;;5006684;28;20465;-73
2022/06/04 10:23:40;;;;;;;14.80;13.43;;;23.80;99.90;;;;;;5006468;28;20403;-74
2022/06/04 10:26:29;;;;;;;14.07;13.07;;;23.50;99.90;;;;;;5006876;28;20418;-74
2022/06/04 10:29:14;;;;;;;11.30;10.50;;;23.50;99.90;;;;;;5005178;28;20514;-74
2022/06/04 10:31:39;;;;;;;10.97;10.17;;;23.20;99.90;;;;;;5006446;28;20442;-74
2022/06/04 10:34:24;;;;;;;14.17;13.10;;;23.00;99.90;;;;;;5006666;28;20414;-74
2022/06/04 10:37:08;;;;;;;14.03;12.83;;;23.00;99.90;;;;;;5006477;28;20180;-74
2022/06/04 10:39:47;;;;;;;11.10;10.30;;;22.80;99.90;;;;;;5006439;28;21058;-74
2022/06/04 10:42:32;;;;;;;9.80;9.00;;;22.80;99.90;;;;;;5006627;28;20797;-74
2022/06/04 10:45:06;;;;;;;9.70;9.00;;;23.00;99.90;;;;;;5006177;28;20449;-73
2022/06/04 10:47:39;;;;;;;10.90;10.00;;;23.70;99.90;;;;;;5006002;28;20459;-74
2022/06/04 10:50:22;;;;;;;10.03;8.90;;;23.90;99.90;;;;;;5006175;28;20473;-73
2022/06/04 10:52:53;;;;;;;9.87;8.97;;;24.10;99.90;;;;;;5006399;28;20399;-74
2022/06/04 10:55:21;;;;;;;10.00;9.20;;;24.20;99.90;;;;;;5006114;28;20415;-73
2022/06/04 10:58:08;;;;;;;9.97;9.23;;;23.60;99.90;;;;;;5005759;28;20911;-74
2022/06/04 11:01:20;;;;;;;11.90;10.90;;;22.90;99.90;;;;;;5004506;28;20486;-73
2022/06/04 11:04:12;;;;;;;12.30;11.20;;;22.60;99.90;;;;;;4994818;28;20462;-74
2022/06/04 11:06:45;;;;;;;11.27;10.37;;;22.70;99.90;;;;;;5005926;28;20407;-75
2022/06/04 11:09:16;;;;;;;11.53;10.40;;;23.00;99.90;;;;;;5006232;28;20503;-74
2022/06/04 11:12:04;;;;;;;12.03;11.03;;;22.90;99.90;;;;;;5006288;28;20418;-73
2022/06/04 11:14:45;;;;;;;16.57;14.87;;;23.30;99.90;;;;;;5006117;28;20403;-74
2022/06/04 11:17:44;;;;;;;16.70;15.30;;;23.30;99.90;;;;;;5005620;28;20446;-74
2022/06/04 11:20:18;;;;;;;15.30;13.83;;;22.80;99.90;;;;;;5001157;28;20487;-74
2022/06/04 11:22:55;;;;;;;17.03;15.63;;;22.50;99.90;;;;;;5005677;28;20767;-74
2022/06/04 11:25:29;;;;;;;16.23;14.83;;;22.40;99.90;;;;;;5005640;28;20525;-74
2022/06/04 11:28:01;;;;;;;15.67;14.47;;;22.30;99.90;;;;;;5005567;28;20514;-74
2022/06/04 11:30:54;;;;;;;16.53;15.00;;;22.50;99.90;;;;;;5005817;28;20427;-74
2022/06/04 11:33:59;;;;;;;17.53;16.03;;;22.40;99.90;;;;;;5005680;28;20493;-74
2022/06/04 11:36:37;;;;;;;19.13;17.43;;;22.20;99.90;;;;;;4983412;28;20438;-74
2022/06/04 11:39:27;;;;;;;21.10;19.40;;;22.40;99.90;;;;;;4999366;28;20435;-73
2022/06/04 11:41:59;;;;;;;22.30;20.60;;;22.20;99.90;;;;;;5005448;28;20473;-75
2022/06/04 11:44:49;;;;;;;19.77;18.17;;;22.10;99.90;;;;;;5004872;28;20963;-75
2022/06/04 11:47:50;;;;;;;20.67;19.07;;;22.50;99.90;;;;;;5005328;28;20462;-74
2022/06/04 11:50:33;;;;;;;18.53;17.13;;;22.20;99.90;;;;;;4959555;28;20460;-75
2022/06/04 11:53:34;;;;;;;20.53;18.83;;;22.40;99.90;;;;;;5005248;28;20415;-74
2022/06/04 11:56:15;;;;;;;22.33;20.53;;;22.60;99.90;;;;;;5020470;28;20425;-75
2022/06/04 11:58:49;;;;;;;20.50;18.80;;;22.20;99.90;;;;;;5020265;28;20433;-74
2022/06/04 12:01:23;;;;;;;25.20;23.00;;;22.40;99.90;;;;;;5003686;28;20410;-75
2022/06/04 12:03:56;;;;;;;20.47;18.77;;;22.70;99.90;;;;;;5020886;28;20461;-75
2022/06/04 12:06:42;;;;;;;20.17;18.47;;;23.40;99.90;;;;;;5005776;28;20588;-75
2022/06/04 12:09:27;;;;;;;22.03;20.23;;;23.60;99.90;;;;;;5004666;28;20932;-74
2022/06/04 12:12:02;;;;;;;21.10;19.10;;;23.80;99.90;;;;;;5005117;28;20483;-74
2022/06/04 12:14:46;;;;;;;19.80;18.00;;;24.20;99.90;;;;;;5004911;28;20406;-74
2022/06/04 12:17:22;;;;;;;19.30;17.70;;;24.90;99.90;;;;;;5005257;28;20413;-74
2022/06/04 12:25:41;;;;;;;21.63;19.87;;;24.40;99.90;;;;;;5004144;28;20433;-74
2022/06/04 12:28:26;;;;;;;16.93;15.63;;;25.10;99.90;;;;;;5004868;28;20542;-74
2022/06/04 12:30:52;;;;;;;18.77;17.20;;;26.70;99.90;;;;;;5004261;28;21310;-74
2022/06/04 12:33:38;;;;;;;17.90;16.50;;;28.00;99.90;;;;;;5004349;28;20415;-74
2022/06/04 12:36:09;;;;;;;17.83;16.40;;;28.60;99.90;;;;;;5004728;28;20407;-74
2022/06/04 12:38:40;;;;;;;16.13;14.83;;;28.50;99.90;;;;;;5003111;28;20911;-74
2022/06/04 12:41:16;;;;;;;15.47;14.20;;;28.30;99.90;;;;;;5004684;28;20457;-75
2022/06/04 12:43:46;;;;;;;14.20;13.00;;;28.80;99.90;;;;;;5004285;28;20449;-74
2022/06/04 12:46:28;;;;;;;12.20;11.30;;;28.70;99.90;;;;;;5004670;28;20447;-75
2022/06/04 12:49:18;;;;;;;12.43;11.33;;;29.40;99.90;;;;;;5004332;28;20458;-75
2022/06/04 12:51:53;;;;;;;12.17;11.17;;;29.60;99.90;;;;;;5004320;28;20407;-75
2022/06/04 12:54:27;;;;;;;14.83;13.83;;;30.30;99.90;;;;;;5004263;28;20921;-74
2022/06/04 12:57:16;;;;;;;13.57;12.30;;;28.80;99.90;;;;;;5004147;28;20414;-75
2022/06/04 12:59:46;;;;;;;14.77;13.57;;;28.00;99.90;;;;;;5002723;28;20506;-75
2022/06/04 13:02:28;;;;;;;13.70;12.70;;;29.30;99.90;;;;;;5004650;28;20739;-74
2022/06/04 13:05:27;;;;;;;11.33;10.53;;;29.80;99.90;;;;;;5003665;28;20449;-75
2022/06/04 13:08:16;;;;;;;9.43;8.73;;;32.50;99.30;;;;;;4992627;28;20431;-75
2022/06/04 13:10:48;;;;;;;7.00;6.50;;;33.20;95.90;;;;;;5004482;28;20985;-75
2022/06/04 13:13:47;;;;;;;9.73;8.93;;;32.90;96.50;;;;;;5004303;28;20510;-74
2022/06/04 13:16:24;;;;;;;9.93;9.10;;;34.60;93.30;;;;;;5004062;28;21281;-74
2022/06/04 13:19:19;;;;;;;9.13;8.37;;;35.90;91.20;;;;;;5004444;28;20492;-75